Time;durP1;ratioP1;P1;durP2;ratioP2;P2;SDS_P1;SDS_P2;PMS_P1;PMS_P2;Temp;Humidity;BMP_temperature;BMP_pressure;BME280_temperature;BME280_humidity;BME280_pressure;Samples;Min_cycle;Max_cycle;Signal;HPM_P1;HPM_P2
2021/08/19 00:00:58;;;;;;;6.53;2.38;;;;;;;21.73;59.53;98464.59;4935151;28;20110;-62
2021/08/19 00:03:23;;;;;;;6.32;2.47;;;;;;;21.64;59.80;98464.88;4954406;28;20027;-62
2021/08/19 00:05:49;;;;;;;6.25;2.55;;;;;;;21.41;59.80;98422.38;4955942;28;20497;-62
2021/08/19 00:08:14;;;;;;;6.53;2.70;;;;;;;21.57;59.37;98453.56;4946495;28;20029;-62
2021/08/19 00:10:39;;;;;;;5.30;2.28;;;;;;;21.61;58.74;98461.88;4957206;28;20046;-62
2021/08/19 00:13:05;;;;;;;5.57;2.28;;;;;;;21.55;59.01;98458.28;4948842;28;20031;-61
2021/08/19 00:15:30;;;;;;;6.05;2.58;;;;;;;21.62;58.80;98452.91;4947872;28;20606;-62
2021/08/19 00:17:56;;;;;;;7.03;2.63;;;;;;;21.66;58.70;98460.19;4964189;28;20054;-62
2021/08/19 00:20:21;;;;;;;6.22;2.67;;;;;;;21.66;58.62;98465.47;4957034;28;20050;-62
2021/08/19 00:22:47;;;;;;;6.60;2.75;;;;;;;21.74;59.16;98460.91;4971443;28;20027;-62
2021/08/19 00:25:13;;;;;;;8.40;2.40;;;;;;;21.72;59.28;98462.97;4971081;28;20031;-62
2021/08/19 00:27:38;;;;;;;6.57;2.42;;;;;;;21.65;59.95;98463.06;4971273;28;20390;-61
2021/08/19 00:30:05;;;;;;;6.07;2.65;;;;;;;21.73;60.31;98459.31;4956854;28;20029;-62
2021/08/19 00:32:30;;;;;;;5.72;2.60;;;;;;;21.67;60.37;98455.72;4965156;28;20035;-62
2021/08/19 00:34:56;;;;;;;5.97;2.60;;;;;;;21.61;60.51;98457.41;4962711;28;20695;-62
2021/08/19 00:37:21;;;;;;;8.30;2.47;;;;;;;21.60;60.62;98450.50;4935989;28;20068;-63
2021/08/19 00:39:47;;;;;;;6.88;2.50;;;;;;;21.54;60.48;98454.03;4960115;28;20046;-62
2021/08/19 00:42:14;;;;;;;6.65;2.80;;;;;;;21.29;60.14;98403.78;4962533;28;20035;-62
2021/08/19 00:44:40;;;;;;;6.00;2.70;;;;;;;21.64;60.38;98458.78;4939848;28;20066;-60
2021/08/19 00:47:09;;;;;;;6.50;2.47;;;;;;;21.34;60.26;98409.22;4938408;28;20561;-62
2021/08/19 00:49:35;;;;;;;;;;;;;;;21.58;60.69;98454.41;4961617;28;20030;-62
2021/08/19 00:52:01;;;;;;;7.20;2.42;;;;;;;21.64;60.29;98450.84;4960125;28;20161;-62
2021/08/19 00:54:27;;;;;;;7.72;2.30;;;;;;;21.60;60.42;98450.50;4958990;28;20046;-62
2021/08/19 00:56:55;;;;;;;5.57;2.35;;;;;;;21.56;61.11;98451.13;4963071;28;20433;-62
2021/08/19 00:59:24;;;;;;;6.97;2.50;;;;;;;21.43;61.37;98444.09;4976997;28;20035;-63
2021/08/19 01:01:53;;;;;;;4.82;2.28;;;;;;;21.25;61.31;98414.00;4962400;28;20645;-62
2021/08/19 01:04:18;;;;;;;4.97;2.05;;;;;;;21.28;61.15;98420.66;4954151;28;20034;-62
2021/08/19 01:06:44;;;;;;;5.28;2.30;;;;;;;21.27;61.71;98425.16;4964784;28;20089;-62
2021/08/19 01:09:10;;;;;;;4.90;2.20;;;;;;;21.36;61.50;98446.03;4957893;28;20508;-62
2021/08/19 01:11:39;;;;;;;5.13;2.53;;;;;;;21.38;60.53;98443.97;4952660;28;20039;-62
2021/08/19 01:14:04;;;;;;;5.00;2.30;;;;;;;21.20;60.29;98407.75;4950912;28;20035;-59
2021/08/19 01:16:30;;;;;;;5.75;2.30;;;;;;;21.17;60.72;98411.63;4944601;28;20609;-62
2021/08/19 01:18:56;;;;;;;6.35;2.25;;;;;;;21.31;60.97;98447.47;4946229;28;20548;-62
2021/08/19 01:21:21;;;;;;;6.85;2.33;;;;;;;21.29;61.43;98433.66;4956930;28;20114;-62
2021/08/19 01:23:46;;;;;;;5.70;2.40;;;;;;;21.03;61.44;98392.44;4953924;28;20439;-62
2021/08/19 01:26:14;;;;;;;6.55;2.47;;;;;;;21.35;61.40;98439.13;4963274;28;20038;-61
2021/08/19 01:28:40;;;;;;;6.25;2.30;;;;;;;21.26;61.73;98438.59;4956805;28;20026;-62
2021/08/19 01:31:07;;;;;;;6.32;2.45;;;;;;;21.31;61.60;98442.19;4954129;28;20045;-62
2021/08/19 01:33:33;;;;;;;8.10;2.70;;;;;;;20.77;62.23;98400.59;4962157;28;20085;-62
2021/08/19 01:35:59;;;;;;;6.88;2.80;;;;;;;20.87;63.07;98438.72;4955630;28;20403;-62
2021/08/19 01:38:34;;;;;;;7.25;2.42;;;;;;;20.96;63.31;98438.47;4958464;28;20039;-62
2021/08/19 01:41:00;;;;;;;5.47;2.42;;;;;;;21.05;63.48;98435.31;4959304;28;20035;-62
2021/08/19 01:43:27;;;;;;;9.23;2.90;;;;;;;21.13;63.17;98440.31;4954546;28;20529;-62
2021/08/19 01:46:13;;;;;;;6.68;2.70;;;;;;;21.22;63.15;98437.41;4953896;28;20031;-62
2021/08/19 01:48:40;;;;;;;6.43;3.10;;;;;;;21.23;63.36;98434.56;4963284;28;20027;-60
2021/08/19 01:51:12;;;;;;;6.88;2.40;;;;;;;21.15;62.52;98440.09;4963148;28;20069;-62
2021/08/19 01:53:41;;;;;;;6.90;2.40;;;;;;;21.20;61.61;98439.47;4942348;28;20027;-62
2021/08/19 01:56:06;;;;;;;7.10;2.40;;;;;;;21.29;61.58;98443.44;4951802;28;20418;-62
2021/08/19 01:58:31;;;;;;;5.82;2.30;;;;;;;21.30;61.89;98450.34;4937987;28;20043;-62
2021/08/19 02:00:57;;;;;;;6.40;2.30;;;;;;;21.08;62.13;98412.91;4953039;28;20074;-62
2021/08/19 02:03:22;;;;;;;5.78;2.30;;;;;;;21.11;62.29;98446.88;4954654;28;20118;-63
2021/08/19 02:05:50;;;;;;;5.07;2.17;;;;;;;20.88;62.69;98442.16;4936221;29;20560;-63
2021/08/19 02:08:17;;;;;;;8.50;2.30;;;;;;;20.96;62.07;98452.47;4957819;28;20037;-62
2021/08/19 02:10:43;;;;;;;5.60;2.35;;;;;;;20.93;61.98;98445.78;4956414;28;20038;-62
2021/08/19 02:13:09;;;;;;;6.18;2.00;;;;;;;20.69;61.70;98407.75;4949630;28;20034;-62
2021/08/19 02:15:34;;;;;;;5.20;2.25;;;;;;;20.72;61.79;98423.19;4938137;28;20034;-63
2021/08/19 02:18:00;;;;;;;5.10;2.13;;;;;;;20.93;62.11;98444.97;4959998;28;20576;-62
2021/08/19 02:20:25;;;;;;;7.60;2.25;;;;;;;20.99;62.01;98449.41;4957362;28;20393;-62
2021/08/19 02:22:51;;;;;;;6.05;2.30;;;;;;;20.91;62.02;98455.75;4957169;28;20089;-62
2021/08/19 02:25:17;;;;;;;6.22;2.20;;;;;;;20.86;62.09;98449.50;4963887;28;20435;-62
2021/08/19 02:27:43;;;;;;;6.32;2.40;;;;;;;20.89;61.83;98436.66;4956795;28;20498;-62
2021/08/19 02:30:10;;;;;;;7.35;2.30;;;;;;;20.63;61.74;98399.91;4933037;28;20109;-63
2021/08/19 02:32:36;;;;;;;5.63;2.25;;;;;;;20.84;61.87;98436.50;4955808;28;20046;-61
2021/08/19 02:35:01;;;;;;;7.32;2.30;;;;;;;20.70;61.82;98408.59;4951246;28;20498;-62
2021/08/19 02:37:27;;;;;;;5.35;1.88;;;;;;;20.62;61.23;98404.34;4958189;28;20355;-62
2021/08/19 02:39:52;;;;;;;4.80;2.13;;;;;;;20.93;61.57;98440.50;4958531;28;20039;-62
2021/08/19 02:42:18;;;;;;;5.15;1.98;;;;;;;20.74;61.84;98431.69;4961137;28;20113;-61
2021/08/19 02:44:43;;;;;;;5.65;1.75;;;;;;;20.79;61.49;98440.81;4956891;28;20474;-61
2021/08/19 02:47:08;;;;;;;6.32;2.10;;;;;;;20.63;61.30;98439.53;4946338;28;20039;-61
2021/08/19 02:49:34;;;;;;;5.82;2.20;;;;;;;20.53;60.93;98398.53;4972838;28;20030;-61
2021/08/19 02:51:59;;;;;;;6.68;2.63;;;;;;;20.84;61.11;98438.34;4960154;28;21622;-62
2021/08/19 02:54:25;;;;;;;4.88;2.08;;;;;;;20.58;61.23;98394.41;4957493;28;20027;-62
2021/08/19 02:56:50;;;;;;;5.18;2.10;;;;;;;20.83;61.13;98439.38;4955823;28;20047;-62
2021/08/19 02:59:15;;;;;;;5.85;2.10;;;;;;;20.67;61.89;98436.22;4960810;28;20042;-61
2021/08/19 03:01:41;;;;;;;5.00;2.17;;;;;;;20.76;61.62;98442.06;4958905;28;20031;-62
2021/08/19 03:04:06;;;;;;;6.93;2.10;;;;;;;20.64;61.47;98420.00;4960768;28;20042;-61
2021/08/19 03:06:32;;;;;;;7.25;2.03;;;;;;;20.60;61.46;98416.13;4951058;28;20502;-61
2021/08/19 03:08:57;;;;;;;6.47;2.38;;;;;;;20.62;61.81;98430.78;4960131;28;20482;-62
2021/08/19 03:11:22;;;;;;;6.20;2.20;;;;;;;20.45;61.80;98416.44;4953198;28;20221;-61
2021/08/19 03:13:48;;;;;;;5.32;2.30;;;;;;;20.54;62.21;98428.38;4957774;28;20023;-61
2021/08/19 03:16:13;;;;;;;5.78;2.58;;;;;;;20.58;62.08;98434.03;4955586;28;20121;-61
2021/08/19 03:18:39;;;;;;;7.70;2.60;;;;;;;20.53;62.38;98435.50;4951182;28;20623;-62
2021/08/19 03:21:05;;;;;;;6.50;2.60;;;;;;;20.56;62.46;98436.88;4957059;28;20042;-63
2021/08/19 03:23:30;;;;;;;6.22;2.65;;;;;;;20.44;62.74;98436.75;4957111;28;20148;-62
2021/08/19 03:25:56;;;;;;;5.50;2.65;;;;;;;20.53;62.48;98432.84;4953959;28;20734;-62
2021/08/19 03:28:23;;;;;;;7.30;2.83;;;;;;;20.59;62.11;98433.81;4955940;28;20038;-61
2021/08/19 03:30:49;;;;;;;11.80;2.85;;;;;;;20.48;62.74;98437.97;4956000;28;20502;-60
2021/08/19 03:33:17;;;;;;;5.60;2.60;;;;;;;20.52;62.45;98433.06;4959852;28;20027;-61
2021/08/19 03:35:43;;;;;;;5.50;2.33;;;;;;;20.32;62.11;98386.47;4956379;28;20643;-61
2021/08/19 03:38:09;;;;;;;8.52;2.45;;;;;;;20.60;61.74;98438.06;4957680;28;20122;-61
2021/08/19 03:40:34;;;;;;;5.35;2.30;;;;;;;20.24;61.59;98393.81;4958256;28;20030;-62
2021/08/19 03:42:59;;;;;;;6.43;2.05;;;;;;;20.55;61.66;98448.47;4936574;28;20039;-61
2021/08/19 03:45:25;;;;;;;7.45;2.28;;;;;;;20.58;61.71;98442.75;4951231;28;20102;-61
2021/08/19 03:47:50;;;;;;;6.05;2.30;;;;;;;20.51;62.11;98442.78;4953474;28;20105;-61
2021/08/19 03:50:16;;;;;;;5.88;2.50;;;;;;;20.15;62.44;98391.44;4955732;28;20035;-62
2021/08/19 03:52:41;;;;;;;6.10;2.42;;;;;;;20.51;62.46;98445.44;4951494;28;20027;-61
2021/08/19 03:55:07;;;;;;;7.85;2.60;;;;;;;20.46;62.91;98447.09;4960305;28;20053;-62
2021/08/19 03:57:32;;;;;;;6.75;2.40;;;;;;;20.47;62.90;98451.38;4958442;28;20030;-61
2021/08/19 03:59:58;;;;;;;7.00;2.75;;;;;;;20.45;62.46;98454.22;4952702;28;20039;-62
2021/08/19 04:02:23;;;;;;;5.70;2.30;;;;;;;20.39;62.27;98459.53;4960400;28;20066;-61
2021/08/19 04:04:48;;;;;;;6.40;2.45;;;;;;;20.33;61.97;98430.34;4957970;28;20476;-61
2021/08/19 04:07:14;;;;;;;4.82;2.10;;;;;;;20.37;62.24;98449.19;4960799;28;20109;-62
2021/08/19 04:09:39;;;;;;;6.30;2.30;;;;;;;20.43;61.94;98464.19;4957968;28;20079;-62
2021/08/19 04:12:05;;;;;;;5.13;2.17;;;;;;;20.45;62.30;98454.22;4974902;28;20299;-64
2021/08/19 04:14:31;;;;;;;6.50;2.53;;;;;;;20.35;62.68;98465.25;4959885;28;20527;-61
2021/08/19 04:16:57;;;;;;;9.85;2.63;;;;;;;20.13;62.23;98419.88;4960483;28;20077;-62
2021/08/19 04:19:23;;;;;;;6.82;2.53;;;;;;;20.40;62.42;98461.97;4972028;28;20039;-61
2021/08/19 04:21:48;;;;;;;5.35;2.30;;;;;;;20.02;62.78;98415.25;4943556;28;20419;-61
2021/08/19 04:24:13;;;;;;;10.40;2.78;;;;;;;20.27;62.98;98454.13;4953826;28;20413;-61
2021/08/19 04:26:39;;;;;;;8.05;2.42;;;;;;;20.33;62.64;98464.66;4963679;28;20049;-62
2021/08/19 04:29:04;;;;;;;7.38;2.47;;;;;;;20.45;62.16;98464.78;4952645;28;20519;-62
2021/08/19 04:31:30;;;;;;;5.00;2.03;;;;;;;20.53;61.80;98469.81;4960709;28;20035;-62
2021/08/19 04:33:56;;;;;;;7.05;2.30;;;;;;;20.50;61.36;98472.88;4956933;28;20797;-62
2021/08/19 04:36:22;;;;;;;9.20;2.65;;;;;;;20.50;61.76;98472.09;4949644;28;20647;-61
2021/08/19 04:38:47;;;;;;;8.27;2.70;;;;;;;20.49;61.67;98463.31;4963523;28;20039;-61
2021/08/19 04:41:12;;;;;;;8.43;2.50;;;;;;;20.53;61.68;98458.44;4958300;28;20071;-62
2021/08/19 04:43:38;;;;;;;8.07;2.30;;;;;;;20.50;62.05;98454.41;4952627;28;20815;-62
2021/08/19 04:46:03;;;;;;;7.15;2.53;;;;;;;20.21;62.07;98416.19;4954559;28;20034;-62
2021/08/19 04:48:29;;;;;;;7.38;2.35;;;;;;;20.52;61.91;98464.75;4958154;28;20565;-61
2021/08/19 04:50:54;;;;;;;5.93;2.65;;;;;;;20.47;62.01;98454.00;4959418;28;20038;-62
2021/08/19 04:53:19;;;;;;;6.30;2.35;;;;;;;20.33;61.99;98432.97;4951494;28;20508;-62
2021/08/19 04:55:45;;;;;;;7.38;2.60;;;;;;;20.54;61.96;98462.69;4956201;28;20038;-62
2021/08/19 04:58:10;;;;;;;7.35;2.50;;;;;;;20.53;62.02;98469.81;4942698;28;20035;-61
2021/08/19 05:00:36;;;;;;;7.70;2.45;;;;;;;20.60;61.72;98476.88;4946992;28;20688;-62
2021/08/19 05:03:01;;;;;;;5.63;2.38;;;;;;;20.59;61.78;98467.34;4937187;28;20039;-61
2021/08/19 05:05:27;;;;;;;6.35;2.47;;;;;;;20.59;61.96;98470.81;4953547;28;20470;-60
2021/08/19 05:07:52;;;;;;;8.60;2.53;;;;;;;20.62;62.24;98474.88;4949708;28;20031;-62
2021/08/19 05:10:17;;;;;;;5.70;2.47;;;;;;;20.41;61.64;98428.44;4961686;28;20501;-61
2021/08/19 05:12:44;;;;;;;6.40;2.50;;;;;;;20.24;62.17;98407.81;4958913;28;20023;-62
2021/08/19 05:15:10;;;;;;;8.10;2.20;;;;;;;20.66;61.97;98468.13;4962401;28;20095;-62
2021/08/19 05:17:35;;;;;;;11.35;2.92;;;;;;;20.77;61.84;98471.91;4956267;28;20035;-63
2021/08/19 05:20:01;;;;;;;9.50;3.40;;;;;;;20.51;61.92;98440.16;4958514;28;20097;-63
2021/08/19 05:22:26;;;;;;;6.68;2.33;;;;;;;20.70;62.16;98469.34;4959848;28;20030;-62
2021/08/19 05:24:52;;;;;;;9.25;2.70;;;;;;;20.61;62.17;98476.72;4975917;28;20106;-62
2021/08/19 05:27:17;;;;;;;8.50;2.95;;;;;;;20.65;62.11;98477.91;4961291;28;20031;-61
2021/08/19 05:29:43;;;;;;;11.88;2.70;;;;;;;20.44;62.79;98443.88;4939411;28;20038;-62
2021/08/19 05:32:08;;;;;;;11.13;3.47;;;;;;;20.61;62.28;98475.88;4956755;28;20035;-62
2021/08/19 05:34:34;;;;;;;7.15;2.67;;;;;;;20.51;63.32;98485.06;4955324;28;20540;-62
2021/08/19 05:36:59;;;;;;;7.60;2.90;;;;;;;20.15;64.15;98436.31;4956097;28;20034;-62
2021/08/19 05:39:25;;;;;;;7.32;2.92;;;;;;;20.49;63.89;98479.16;4958607;28;20023;-61
2021/08/19 05:41:50;;;;;;;6.15;2.80;;;;;;;20.08;64.92;98440.81;4959996;28;20034;-62
2021/08/19 05:44:16;;;;;;;7.15;2.58;;;;;;;20.16;65.62;98477.50;4951445;28;20044;-62
2021/08/19 05:46:41;;;;;;;6.90;2.33;;;;;;;20.24;65.67;98478.28;4951515;28;20488;-62
2021/08/19 05:49:10;;;;;;;6.93;2.85;;;;;;;20.23;66.24;98489.88;4960717;28;20047;-62
2021/08/19 05:51:35;;;;;;;5.72;2.50;;;;;;;20.34;66.45;98499.78;4959382;28;20038;-63
2021/08/19 05:54:01;;;;;;;7.70;2.80;;;;;;;20.39;65.99;98470.09;4960484;28;20894;-62
2021/08/19 05:56:26;;;;;;;5.53;2.40;;;;;;;20.20;66.04;98437.50;4954483;28;20031;-62
2021/08/19 05:58:52;;;;;;;6.18;2.90;;;;;;;20.25;65.75;98441.13;4957859;28;20030;-62
2021/08/19 06:01:17;;;;;;;7.03;2.53;;;;;;;20.28;66.99;98468.91;4955214;28;20182;-61
2021/08/19 06:03:42;;;;;;;6.53;2.70;;;;;;;20.47;66.98;98481.22;4958108;28;20429;-61
2021/08/19 06:06:10;;;;;;;4.88;2.30;;;;;;;20.52;66.33;98486.69;4948501;28;20173;-62
2021/08/19 06:08:36;;;;;;;6.25;2.70;;;;;;;20.64;66.57;98481.53;4938444;28;20035;-61
2021/08/19 06:11:01;;;;;;;6.97;2.50;;;;;;;20.79;67.13;98483.09;4959453;28;20027;-61
2021/08/19 06:13:27;;;;;;;9.00;3.03;;;;;;;20.85;66.37;98485.69;4961869;28;20022;-62
2021/08/19 06:15:52;;;;;;;7.30;2.70;;;;;;;20.69;66.05;98447.38;4957519;28;20035;-63
2021/08/19 06:18:17;;;;;;;7.38;2.42;;;;;;;20.86;65.64;98457.44;4961570;28;20114;-62
2021/08/19 06:20:43;;;;;;;7.53;3.30;;;;;;;21.07;65.32;98488.78;4960739;28;20034;-62
2021/08/19 06:23:11;;;;;;;7.00;2.58;;;;;;;20.91;65.08;98453.13;4957338;28;20034;-62
2021/08/19 06:25:40;;;;;;;6.70;2.60;;;;;;;21.20;65.55;98492.34;4961217;28;20105;-61
2021/08/19 06:28:07;;;;;;;5.90;2.70;;;;;;;21.18;64.99;98481.97;4959313;28;20045;-62
2021/08/19 06:30:32;;;;;;;7.50;2.58;;;;;;;20.97;65.68;98488.44;4959923;28;20122;-61
2021/08/19 06:32:59;;;;;;;5.22;2.40;;;;;;;20.87;66.20;98472.28;4959630;28;20485;-61
2021/08/19 06:35:25;;;;;;;7.10;2.55;;;;;;;20.93;65.56;98477.50;4974502;28;20031;-62
2021/08/19 06:37:50;;;;;;;5.18;2.30;;;;;;;20.93;65.82;98477.50;4948319;28;20327;-61
2021/08/19 06:40:16;;;;;;;6.65;2.70;;;;;;;20.91;66.09;98478.72;4962614;28;20035;-61
2021/08/19 06:42:41;;;;;;;4.93;2.03;;;;;;;21.00;66.11;98476.66;4961752;28;20038;-61
2021/08/19 06:45:07;;;;;;;6.75;2.38;;;;;;;21.14;65.84;98486.09;4931186;28;20547;-62
2021/08/19 06:47:32;;;;;;;7.93;2.58;;;;;;;21.17;65.64;98480.34;4968108;28;20035;-63
2021/08/19 06:49:58;;;;;;;6.80;2.53;;;;;;;20.92;65.80;98440.72;4960112;28;20043;-62
2021/08/19 06:52:23;;;;;;;8.20;2.70;;;;;;;21.04;65.86;98493.69;4934540;28;20145;-61
2021/08/19 06:54:49;;;;;;;6.20;2.72;;;;;;;20.81;65.70;98444.88;4959372;28;20031;-59
2021/08/19 06:57:14;;;;;;;6.20;2.50;;;;;;;21.09;66.27;98480.63;4962467;28;20109;-61
2021/08/19 06:59:39;;;;;;;6.72;2.50;;;;;;;21.07;66.44;98477.41;4956698;28;20748;-61
2021/08/19 07:02:05;;;;;;;7.45;2.90;;;;;;;20.92;66.55;98486.47;4969362;28;20085;-61
2021/08/19 07:04:30;;;;;;;9.05;2.72;;;;;;;20.83;66.76;98442.81;4959114;28;20038;-62
2021/08/19 07:06:56;;;;;;;6.18;2.28;;;;;;;21.12;66.73;98478.38;4960208;28;20033;-61
2021/08/19 07:09:21;;;;;;;5.93;2.60;;;;;;;21.04;66.46;98472.53;4955014;28;20496;-62
2021/08/19 07:11:46;;;;;;;7.53;2.58;;;;;;;21.16;66.61;98478.75;4974950;28;20045;-62
2021/08/19 07:14:12;;;;;;;5.88;2.30;;;;;;;21.23;66.38;98478.66;4958295;28;20406;-62
2021/08/19 07:16:38;;;;;;;6.78;2.60;;;;;;;21.27;66.04;98470.09;4936069;28;20129;-62
2021/08/19 07:19:04;;;;;;;6.13;2.70;;;;;;;21.37;65.95;98474.88;4972046;28;20031;-62
2021/08/19 07:21:30;;;;;;;6.40;2.67;;;;;;;21.31;65.89;98476.56;4958387;28;20477;-63
2021/08/19 07:23:55;;;;;;;6.18;2.70;;;;;;;21.25;66.54;98474.00;4964792;28;20031;-61
2021/08/19 07:26:22;;;;;;;5.65;2.50;;;;;;;21.17;66.40;98438.06;4952843;28;20046;-61
2021/08/19 07:28:53;;;;;;;6.38;3.47;;;;;;;21.40;64.26;98469.16;4957513;28;20098;-62
2021/08/19 07:31:20;;;;;;;10.57;5.75;;;;;;;21.39;64.22;98469.38;4956629;28;20087;-62
2021/08/19 07:33:45;;;;;;;14.13;8.93;;;;;;;21.41;64.72;98477.91;4956769;28;20043;-61
2021/08/19 07:36:11;;;;;;;9.02;3.95;;;;;;;21.47;64.05;98482.38;4957163;28;20730;-62
2021/08/19 07:38:36;;;;;;;6.10;2.45;;;;;;;21.17;64.98;98442.53;4958616;28;20042;-61
2021/08/19 07:41:02;;;;;;;6.32;2.40;;;;;;;21.52;63.69;98473.75;4963057;28;20032;-62
2021/08/19 07:43:27;;;;;;;6.50;2.55;;;;;;;21.50;64.40;98481.91;4942285;28;20014;-62
2021/08/19 07:45:53;;;;;;;5.50;2.42;;;;;;;21.60;64.64;98481.44;4959688;28;20625;-61
2021/08/19 07:48:18;;;;;;;7.18;2.83;;;;;;;21.64;64.63;98470.19;4956436;28;20102;-61
2021/08/19 07:50:43;;;;;;;6.90;2.58;;;;;;;21.81;64.38;98482.81;4955203;28;20034;-61
2021/08/19 07:53:09;;;;;;;8.10;2.85;;;;;;;21.98;63.55;98477.75;4968664;28;20101;-62
2021/08/19 07:55:35;;;;;;;5.38;2.22;;;;;;;22.04;63.13;98482.16;4956823;28;20278;-61
2021/08/19 07:58:00;;;;;;;7.65;2.50;;;;;;;21.94;63.17;98482.69;4962278;28;20117;-62
2021/08/19 08:00:31;;;;;;;5.82;2.40;;;;;;;21.95;63.57;98484.28;4956296;28;20134;-62
2021/08/19 08:02:57;;;;;;;6.05;2.75;;;;;;;21.75;63.52;98481.88;4954949;28;20027;-61
2021/08/19 08:05:25;;;;;;;5.55;2.65;;;;;;;21.62;63.75;98480.16;4950811;28;20039;-61
2021/08/19 08:07:51;;;;;;;7.22;2.45;;;;;;;21.42;63.19;98426.66;4954754;28;20065;-61
2021/08/19 08:10:17;;;;;;;5.22;2.45;;;;;;;21.57;64.41;98450.91;4961373;28;20121;-61
2021/08/19 08:12:43;;;;;;;5.30;2.38;;;;;;;21.84;64.73;98496.41;4935913;28;20038;-61
2021/08/19 08:15:09;;;;;;;6.85;3.05;;;;;;;21.94;65.06;98495.09;4956394;28;20169;-61
2021/08/19 08:17:36;;;;;;;8.23;2.63;;;;;;;22.02;64.72;98498.25;4955511;28;20046;-62
2021/08/19 08:20:04;;;;;;;7.43;2.80;;;;;;;21.97;63.96;98484.06;4971362;28;20034;-61
2021/08/19 08:22:29;;;;;;;6.30;2.67;;;;;;;22.10;62.61;98507.75;4944428;28;20666;-61
2021/08/19 08:24:55;;;;;;;5.95;2.58;;;;;;;22.01;63.55;98509.91;4961272;28;20031;-61
2021/08/19 08:27:21;;;;;;;10.00;2.90;;;;;;;22.11;63.82;98508.56;4959089;28;20034;-61
2021/08/19 08:29:46;;;;;;;6.10;2.58;;;;;;;22.16;63.93;98512.16;4957041;28;20441;-61
2021/08/19 08:32:12;;;;;;;6.65;2.60;;;;;;;21.98;62.46;98497.09;4957826;28;20549;-61
2021/08/19 08:34:39;;;;;;;6.35;2.53;;;;;;;21.92;62.14;98510.41;4967429;28;20027;-61
2021/08/19 08:37:05;;;;;;;5.93;2.40;;;;;;;21.96;61.44;98517.69;4958931;28;20502;-61
2021/08/19 08:39:33;;;;;;;7.18;2.50;;;;;;;21.97;62.78;98521.13;4957524;28;20045;-61
2021/08/19 08:41:59;;;;;;;7.43;2.45;;;;;;;21.89;61.84;98520.41;4961031;28;20037;-60
2021/08/19 08:44:28;;;;;;;8.90;2.40;;;;;;;22.04;61.24;98511.28;4958237;28;20027;-61
2021/08/19 08:46:57;;;;;;;7.65;2.35;;;;;;;22.01;61.18;98490.53;4964962;28;20097;-61
2021/08/19 08:49:23;;;;;;;5.90;2.67;;;;;;;22.27;61.19;98526.53;4959503;28;20039;-61
2021/08/19 08:51:55;;;;;;;7.40;2.30;;;;;;;22.39;60.77;98524.72;4962118;28;20195;-61
2021/08/19 08:54:21;;;;;;;6.47;2.60;;;;;;;22.07;61.43;98494.97;4961966;28;20074;-62
2021/08/19 08:56:46;;;;;;;6.53;2.45;;;;;;;22.06;60.96;98485.38;4956808;28;20081;-63
2021/08/19 08:59:11;;;;;;;7.68;2.70;;;;;;;22.18;61.18;98511.94;4966479;28;20038;-61
2021/08/19 09:01:37;;;;;;;7.82;2.95;;;;;;;22.41;60.11;98540.41;4957128;28;20019;-61
2021/08/19 09:04:03;;;;;;;6.35;2.80;;;;;;;22.50;60.41;98535.59;4961358;28;20050;-61
2021/08/19 09:06:43;;;;;;;5.97;2.65;;;;;;;22.60;60.40;98520.78;4964105;28;20054;-60
2021/08/19 09:09:19;;;;;;;5.55;2.50;;;;;;;23.12;58.94;98530.06;4961166;28;20082;-61
2021/08/19 09:11:52;;;;;;;5.85;2.60;;;;;;;23.08;58.77;98497.91;4953615;28;20039;-61
2021/08/19 09:14:28;;;;;;;6.43;2.53;;;;;;;23.15;58.21;98535.72;4964198;28;20046;-61
2021/08/19 09:16:54;;;;;;;5.57;2.50;;;;;;;23.03;58.46;98532.19;4948283;28;20065;-61
2021/08/19 09:19:21;;;;;;;6.57;2.70;;;;;;;22.98;58.90;98521.47;4964948;28;20106;-62
2021/08/19 09:21:52;;;;;;;6.05;2.67;;;;;;;22.82;58.21;98517.66;4944264;28;20104;-61
2021/08/19 09:24:28;;;;;;;6.93;2.55;;;;;;;22.73;57.67;98495.94;4963680;28;20038;-61
2021/08/19 09:26:55;;;;;;;8.27;2.58;;;;;;;22.93;57.28;98531.97;4953028;28;20062;-61
2021/08/19 09:29:29;;;;;;;6.95;2.70;;;;;;;22.86;56.55;98521.44;4979311;28;20062;-62
2021/08/19 09:31:57;;;;;;;5.97;2.67;;;;;;;22.97;56.48;98525.16;4960725;28;20030;-61
2021/08/19 09:34:22;;;;;;;6.55;2.70;;;;;;;23.03;57.07;98519.75;4974962;28;20043;-60
2021/08/19 09:37:02;;;;;;;5.47;2.60;;;;;;;22.58;57.05;98453.16;4980762;28;20027;-61
2021/08/19 09:39:35;;;;;;;7.03;2.55;;;;;;;23.05;57.99;98511.59;4956229;28;20128;-61
2021/08/19 09:42:01;;;;;;;6.28;2.67;;;;;;;22.64;58.27;98476.09;4964061;28;20612;-62
2021/08/19 09:44:33;;;;;;;7.97;2.55;;;;;;;23.10;55.71;98508.28;4958048;28;20051;-61
2021/08/19 09:47:00;;;;;;;5.57;2.33;;;;;;;23.30;55.10;98513.25;4961698;28;20029;-61
2021/08/19 09:49:29;;;;;;;5.95;2.40;;;;;;;23.23;55.16;98519.47;4978765;28;20170;-61
2021/08/19 09:52:07;;;;;;;6.68;2.40;;;;;;;23.09;54.34;98514.59;4961955;28;20039;-61
2021/08/19 09:54:34;;;;;;;6.05;2.47;;;;;;;23.21;54.43;98515.44;4964735;28;20038;-61
2021/08/19 09:57:00;;;;;;;7.32;2.50;;;;;;;23.18;54.41;98516.72;4956585;28;20163;-61
2021/08/19 09:59:27;;;;;;;5.50;2.40;;;;;;;23.36;53.63;98514.97;4960531;28;20069;-60
2021/08/19 10:01:57;;;;;;;7.57;2.10;;;;;;;23.34;50.04;98511.75;4959790;28;20108;-61
2021/08/19 10:04:25;;;;;;;9.02;2.22;;;;;;;23.35;48.70;98508.88;4958949;28;20032;-61
2021/08/19 10:06:52;;;;;;;5.80;1.98;;;;;;;23.38;48.96;98465.97;4957811;28;20039;-60
2021/08/19 10:09:17;;;;;;;5.18;2.10;;;;;;;23.47;47.92;98506.22;4956619;28;20053;-62
2021/08/19 10:11:45;;;;;;;5.97;2.30;;;;;;;23.65;52.58;98504.47;4955380;28;20039;-61
2021/08/19 10:14:14;;;;;;;5.10;1.85;;;;;;;23.59;51.99;98504.38;4955780;28;20572;-61
2021/08/19 10:16:40;;;;;;;5.82;2.28;;;;;;;23.56;50.69;98501.38;4957662;28;20030;-61
2021/08/19 10:19:17;;;;;;;5.38;2.30;;;;;;;23.52;49.54;98489.59;4933780;28;20054;-61
2021/08/19 10:21:44;;;;;;;5.10;1.90;;;;;;;23.64;48.59;98487.75;4961097;28;20114;-61
2021/08/19 10:24:11;;;;;;;7.55;2.13;;;;;;;23.89;47.75;98498.13;4969915;28;20117;-61
2021/08/19 10:26:36;;;;;;;4.50;2.13;;;;;;;23.71;47.56;98463.72;4961196;28;20069;-61
2021/08/19 10:29:03;;;;;;;7.28;2.20;;;;;;;23.75;48.74;98454.28;4948312;28;20066;-61
2021/08/19 10:31:35;;;;;;;5.68;2.10;;;;;;;23.95;48.66;98489.25;4939651;28;20098;-61
2021/08/19 10:34:01;;;;;;;5.32;2.15;;;;;;;23.73;46.21;98493.50;4953776;28;20047;-61
2021/08/19 10:36:29;;;;;;;5.55;2.15;;;;;;;23.68;47.64;98491.56;4963866;28;20027;-61
2021/08/19 10:39:20;;;;;;;5.93;2.20;;;;;;;23.70;47.73;98500.09;4953107;28;20547;-62
2021/08/19 10:41:52;;;;;;;6.40;1.90;;;;;;;23.85;47.23;98499.63;4963407;28;20035;-62
2021/08/19 10:44:18;;;;;;;7.05;2.15;;;;;;;23.56;45.78;98450.94;4953702;28;20078;-61
2021/08/19 10:46:49;;;;;;;5.07;2.00;;;;;;;23.87;45.12;98494.91;4951533;28;20023;-62
2021/08/19 10:49:31;;;;;;;4.88;2.00;;;;;;;23.29;45.23;98446.16;4953175;28;20588;-61
2021/08/19 10:52:23;;;;;;;4.85;2.10;;;;;;;23.50;45.10;98475.78;4951711;28;20150;-61
2021/08/19 10:54:50;;;;;;;5.00;1.95;;;;;;;23.33;45.97;98454.44;4950931;28;20043;-61
2021/08/19 10:57:23;;;;;;;6.35;2.15;;;;;;;23.51;46.87;98480.84;4957028;28;20050;-60
2021/08/19 11:00:17;;;;;;;5.05;1.92;;;;;;;23.50;45.85;98449.25;4955155;28;20284;-61
2021/08/19 11:02:54;;;;;;;6.00;2.33;;;;;;;23.78;45.93;98480.34;4948455;28;20031;-61
2021/08/19 11:05:25;;;;;;;5.63;2.00;;;;;;;23.97;46.68;98478.38;4952496;28;20038;-61
2021/08/19 11:08:02;;;;;;;5.60;2.13;;;;;;;24.01;45.59;98473.41;4955079;28;20041;-60
2021/08/19 11:10:30;;;;;;;5.38;2.20;;;;;;;24.10;45.47;98475.44;4950513;28;20537;-61
2021/08/19 11:13:11;;;;;;;5.22;2.10;;;;;;;24.13;43.87;98471.50;4951497;28;20035;-61
2021/08/19 11:15:45;;;;;;;5.38;2.00;;;;;;;24.08;45.26;98458.94;4958264;28;20026;-61
2021/08/19 11:18:23;;;;;;;5.68;2.08;;;;;;;23.92;44.95;98441.09;4955711;28;20027;-60
2021/08/19 11:20:48;;;;;;;6.65;2.25;;;;;;;24.21;44.72;98463.19;4938085;28;20035;-61
2021/08/19 11:23:14;;;;;;;5.15;1.92;;;;;;;24.26;45.11;98463.28;4959469;28;20056;-61
2021/08/19 11:25:42;;;;;;;6.47;2.20;;;;;;;24.34;45.34;98446.94;4955330;28;20379;-61
2021/08/19 11:28:10;;;;;;;4.93;2.20;;;;;;;24.38;45.33;98455.25;4947183;28;20054;-60
2021/08/19 11:30:38;;;;;;;5.65;2.10;;;;;;;24.25;44.73;98453.69;4956392;28;20106;-60
2021/08/19 11:33:16;;;;;;;4.97;2.03;;;;;;;24.24;43.45;98453.91;4968670;28;20090;-61